createdAt,value
2017-12-27T00:00:58.088Z,62.2
2017-12-27T00:10:57.772Z,66.8
2017-12-27T00:20:57.974Z,70.4
2017-12-27T00:30:57.690Z,71.5
2017-12-27T00:40:57.872Z,86.7
2017-12-27T00:50:57.549Z,94.4
2017-12-27T01:00:57.242Z,104.5
2017-12-27T01:10:57.151Z,94.2
2017-12-27T01:20:57.006Z,93.5
2017-12-27T01:30:58.349Z,100.6
2017-12-27T01:40:57.202Z,92.9
2017-12-27T01:50:58.073Z,95.2
2017-12-27T02:00:58.416Z,94.2
2017-12-27T02:10:57.325Z,90.8
2017-12-27T02:20:57.179Z,92.8
2017-12-27T02:30:58.134Z,92.9
2017-12-27T02:40:57.887Z,101.9
2017-12-27T02:50:57.825Z,100.9
2017-12-27T03:00:58.434Z,100.5
2017-12-27T03:10:57.407Z,95.3
2017-12-27T03:20:57.254Z,95.0
2017-12-27T03:30:57.797Z,93.2
2017-12-27T03:40:57.738Z,98.2
2017-12-27T03:50:57.417Z,98.4
2017-12-27T04:00:57.092Z,95.7
2017-12-27T04:10:58.045Z,97.2
2017-12-27T04:20:58.303Z,96.4
2017-12-27T04:30:57.392Z,91.9
2017-12-27T04:40:57.657Z,83.3
2017-12-27T04:50:58.650Z,84.8
2017-12-27T05:00:57.497Z,82.6
2017-12-27T05:10:57.442Z,89.4
2017-12-27T05:20:57.526Z,81.0
2017-12-27T05:30:57.936Z,90.5
2017-12-27T05:40:57.629Z,92.6
2017-12-27T05:50:57.310Z,92.0
2017-12-27T06:00:56.984Z,85.2
2017-12-27T06:10:57.788Z,85.6
2017-12-27T06:20:57.741Z,85.2
2017-12-27T06:30:57.429Z,72.4
2017-12-27T06:40:57.495Z,71.9
2017-12-27T06:50:57.913Z,72.3
2017-12-27T07:00:57.753Z,74.7
2017-12-27T07:10:57.463Z,74.1
2017-12-27T07:20:57.251Z,70.2
2017-12-27T07:30:56.933Z,64.2
2017-12-27T07:40:57.947Z,58.5
2017-12-27T07:50:57.841Z,62.0
2017-12-27T08:00:57.682Z,80.0
2017-12-27T08:10:58.146Z,76.3
2017-12-27T08:20:56.977Z,73.0
2017-12-27T08:30:57.956Z,73.6
2017-12-27T08:40:58.096Z,60.8
2017-12-27T08:50:57.811Z,55.1
2017-12-27T09:00:58.216Z,55.0
2017-12-27T09:10:57.925Z,50.5
2017-12-27T09:20:57.991Z,52.9
2017-12-27T09:30:57.979Z,52.7
2017-12-27T09:40:57.674Z,49.8
2017-12-27T09:50:57.584Z,46.7
2017-12-27T10:00:57.264Z,45.5
2017-12-27T10:10:57.011Z,41.0
2017-12-27T10:20:58.366Z,39.4
2017-12-27T10:30:57.358Z,36.8
2017-12-27T10:40:57.209Z,39.8
2017-12-27T10:50:57.916Z,47.6
2017-12-27T11:00:57.568Z,33.7
2017-12-27T11:10:57.761Z,21.3
2017-12-27T11:20:57.633Z,16.1
2017-12-27T11:30:57.876Z,11.1
2017-12-27T11:40:58.029Z,12.8
2017-12-27T11:50:57.752Z,30.5
2017-12-27T12:00:57.463Z,33.6
2017-12-27T12:10:57.855Z,32.3
2017-12-27T12:20:58.718Z,25.3
2017-12-27T12:30:58.322Z,22.1
2017-12-27T12:40:57.788Z,21.5
2017-12-27T12:50:57.901Z,24.1
2017-12-27T13:00:57.810Z,22.6
2017-12-27T13:10:57.775Z,18.8
2017-12-27T13:20:58.014Z,18.5
2017-12-27T13:30:58.255Z,16.1
2017-12-27T13:40:58.267Z,13.6
2017-12-27T13:50:58.150Z,5.2
2017-12-27T14:00:57.934Z,4.4
2017-12-27T14:10:58.471Z,5.0
2017-12-27T14:20:57.384Z,5.1
2017-12-27T14:30:57.135Z,4.4
2017-12-27T14:40:57.886Z,3.5
2017-12-27T14:50:59.301Z,4.0
2017-12-27T15:00:57.186Z,7.6
2017-12-27T15:10:58.285Z,8.4
2017-12-27T15:20:57.469Z,9.9
2017-12-27T15:30:57.168Z,11.9
2017-12-27T15:40:58.063Z,9.5
2017-12-27T15:50:58.684Z,9.5
2017-12-27T16:00:57.951Z,19.5
2017-12-27T16:10:58.141Z,27.4
2017-12-27T16:20:58.736Z,22.9
2017-12-27T16:30:57.450Z,16.0
2017-12-27T16:40:57.950Z,15.9
2017-12-27T16:50:58.216Z,18.3
2017-12-27T17:00:58.430Z,21.0
2017-12-27T17:10:57.638Z,23.1
2017-12-27T17:20:57.626Z,22.1
2017-12-27T17:30:57.542Z,20.5
2017-12-27T17:40:57.787Z,19.9
2017-12-27T17:50:57.747Z,17.7
2017-12-27T18:00:57.764Z,17.7
2017-12-27T18:10:57.798Z,18.8
2017-12-27T18:20:57.669Z,21.3
2017-12-27T18:30:58.258Z,25.3
2017-12-27T18:40:57.992Z,31.4
2017-12-27T18:50:58.232Z,36.6
2017-12-27T19:00:58.262Z,41.7
2017-12-27T19:10:58.341Z,39.3
2017-12-27T19:20:57.211Z,41.2
2017-12-27T19:30:58.507Z,41.6
2017-12-27T19:40:57.987Z,38.9
2017-12-27T19:50:57.731Z,49.4
2017-12-27T20:00:57.601Z,37.5
2017-12-27T20:10:57.812Z,44.9
2017-12-27T20:20:58.635Z,38.3
2017-12-27T20:30:57.844Z,34.1
2017-12-27T20:40:58.705Z,28.2
2017-12-27T20:50:57.742Z,30.2
2017-12-27T21:00:57.778Z,26.2
2017-12-27T21:10:57.557Z,26.4
2017-12-27T21:20:57.434Z,23.1
2017-12-27T21:30:57.572Z,24.0
2017-12-27T21:40:57.384Z,21.1
2017-12-27T21:50:58.221Z,18.7
2017-12-27T22:00:58.620Z,18.2
2017-12-27T22:10:57.403Z,16.3
2017-12-27T22:20:57.378Z,15.2
2017-12-27T22:30:57.069Z,26.0
2017-12-27T22:40:58.513Z,27.2
2017-12-27T22:50:57.648Z,27.5
2017-12-27T23:00:57.692Z,27.3
2017-12-27T23:10:57.687Z,25.9
2017-12-27T23:20:57.513Z,30.1
2017-12-27T23:30:57.279Z,27.8
2017-12-27T23:40:58.045Z,26.7
2017-12-27T23:50:58.461Z,26.1
